createdAt,value
2016-11-13T00:00:15.974Z,1014.99
2016-11-13T00:01:15.988Z,1014.96
2016-11-13T00:02:16.007Z,1015.02
2016-11-13T00:03:16.013Z,1015.01
2016-11-13T00:04:16.026Z,1015.06
2016-11-13T00:05:16.036Z,1015.04
2016-11-13T00:06:16.049Z,1015.02
2016-11-13T00:07:16.061Z,1015.04
2016-11-13T00:08:16.073Z,1015.03
2016-11-13T00:09:16.085Z,1015.06
2016-11-13T00:10:16.098Z,1015
2016-11-13T00:11:16.115Z,1015.04
2016-11-13T00:12:16.123Z,1015.04
2016-11-13T00:13:16.134Z,1015.05
2016-11-13T00:14:16.148Z,1015.12
2016-11-13T00:15:16.162Z,1015.08
2016-11-13T00:16:16.171Z,1015.07
2016-11-13T00:17:16.185Z,1015.11
2016-11-13T00:18:16.197Z,1015.1
2016-11-13T00:19:16.210Z,1015.14
2016-11-13T00:20:16.222Z,1015.17
2016-11-13T00:21:16.235Z,1015.15
2016-11-13T00:22:16.247Z,1015.18
2016-11-13T00:23:16.260Z,1015.23
2016-11-13T00:24:16.276Z,1015.26
2016-11-13T00:25:16.283Z,1015.23
2016-11-13T00:26:16.297Z,1015.24
2016-11-13T00:27:16.309Z,1015.25
2016-11-13T00:28:16.322Z,1015.25
2016-11-13T00:29:16.335Z,1015.22
2016-11-13T00:30:16.345Z,1015.2
2016-11-13T00:31:16.360Z,1015.24
2016-11-13T00:32:16.369Z,1015.2
2016-11-13T00:33:16.386Z,1015.23
2016-11-13T00:34:16.399Z,1015.17
2016-11-13T00:35:16.408Z,1015.19
2016-11-13T00:36:16.418Z,1015.21
2016-11-13T00:37:16.433Z,1015.16
2016-11-13T00:38:16.443Z,1015.15
2016-11-13T00:39:16.455Z,1015.13
2016-11-13T00:40:16.469Z,1015.17
2016-11-13T00:41:16.483Z,1015.13
2016-11-13T00:42:16.495Z,1015.11
2016-11-13T00:43:16.507Z,1015.11
2016-11-13T00:44:16.518Z,1015.1
2016-11-13T00:45:16.533Z,1015.14
2016-11-13T00:46:16.543Z,1015.1
2016-11-13T00:47:16.554Z,1015.09
2016-11-13T00:48:16.571Z,1015.12
2016-11-13T00:49:16.579Z,1015.14
2016-11-13T00:50:16.590Z,1015.14
2016-11-13T00:51:16.604Z,1015.1
2016-11-13T00:52:16.618Z,1015.05
2016-11-13T00:53:16.633Z,1015.1
2016-11-13T00:54:16.641Z,1015.05
2016-11-13T00:55:16.655Z,1015.04
2016-11-13T00:56:16.665Z,1015.04
2016-11-13T00:57:16.676Z,1015.05
2016-11-13T00:58:16.689Z,1015.03
2016-11-13T00:59:16.702Z,1014.99
2016-11-13T01:00:16.713Z,1015.02
2016-11-13T01:01:16.726Z,1015.01
2016-11-13T01:02:16.739Z,1015.02
2016-11-13T01:03:16.751Z,1015.05
2016-11-13T01:04:16.762Z,1015.03
2016-11-13T01:05:16.774Z,1015.03
2016-11-13T01:06:16.786Z,1015.08
2016-11-13T01:07:16.799Z,1015.05
2016-11-13T01:08:16.811Z,1015.02
2016-11-13T01:09:16.823Z,1014.99
2016-11-13T01:10:16.836Z,1015.02
2016-11-13T01:11:16.846Z,1014.98
2016-11-13T01:12:16.862Z,1014.98
2016-11-13T01:13:16.875Z,1014.97
2016-11-13T01:14:16.892Z,1014.98
2016-11-13T01:15:16.896Z,1015.01
2016-11-13T01:16:16.908Z,1014.99
2016-11-13T01:17:16.921Z,1014.97
2016-11-13T01:18:16.935Z,1014.97
2016-11-13T01:19:16.944Z,1014.98
2016-11-13T01:20:16.956Z,1014.95
2016-11-13T01:21:16.969Z,1014.95
2016-11-13T01:22:16.981Z,1014.98
2016-11-13T01:23:16.993Z,1014.98
2016-11-13T01:24:17.006Z,1014.94
2016-11-13T01:25:17.024Z,1014.93
2016-11-13T01:26:17.031Z,1014.97
2016-11-13T01:27:17.042Z,1014.97
2016-11-13T01:28:17.055Z,1014.97
2016-11-13T01:29:17.067Z,1014.99
2016-11-13T01:30:17.080Z,1015
2016-11-13T01:31:17.092Z,1014.98
2016-11-13T01:32:17.105Z,1014.97
2016-11-13T01:33:17.116Z,1015
2016-11-13T01:34:17.130Z,1014.94
2016-11-13T01:35:17.142Z,1015.04
2016-11-13T01:36:17.153Z,1015
2016-11-13T01:37:17.165Z,1015.06
2016-11-13T01:38:17.177Z,1015.09
2016-11-13T01:39:17.189Z,1015.03
2016-11-13T01:40:17.204Z,1015.12
2016-11-13T01:41:17.212Z,1015.09
2016-11-13T01:42:17.224Z,1015.09
2016-11-13T01:43:17.237Z,1015.11
2016-11-13T01:44:17.248Z,1015.12
2016-11-13T01:45:17.261Z,1015.12
2016-11-13T01:46:17.272Z,1015.14
2016-11-13T01:47:17.285Z,1015.12
2016-11-13T01:48:17.298Z,1015.11
2016-11-13T01:49:17.309Z,1015.15
2016-11-13T01:50:17.331Z,1015.09
2016-11-13T01:51:17.332Z,1015.11
2016-11-13T01:52:17.345Z,1015.08
2016-11-13T01:53:17.360Z,1015.1
2016-11-13T01:54:17.371Z,1015.04
2016-11-13T01:55:17.382Z,1015.03
2016-11-13T01:56:17.395Z,1015.06
2016-11-13T01:57:17.406Z,1015.03
2016-11-13T01:58:17.419Z,1015.04
2016-11-13T01:59:17.430Z,1015.03
2016-11-13T02:00:17.443Z,1015.03
2016-11-13T02:01:17.460Z,1015.03
2016-11-13T02:02:17.466Z,1015.05
2016-11-13T02:03:17.478Z,1014.99
2016-11-13T02:04:17.493Z,1014.99
2016-11-13T02:05:17.504Z,1015.02
2016-11-13T02:06:17.516Z,1015.02
2016-11-13T02:07:17.527Z,1015
2016-11-13T02:08:17.539Z,1015
2016-11-13T02:09:17.552Z,1014.99
2016-11-13T02:10:17.563Z,1014.98
2016-11-13T02:11:17.575Z,1014.94
2016-11-13T02:12:17.588Z,1014.96
2016-11-13T02:13:17.599Z,1014.96
2016-11-13T02:14:17.615Z,1014.97
2016-11-13T02:15:17.623Z,1015
2016-11-13T02:16:17.637Z,1014.96
2016-11-13T02:17:17.648Z,1014.94
2016-11-13T02:18:17.661Z,1014.93
2016-11-13T02:19:17.673Z,1014.97
2016-11-13T02:20:17.686Z,1014.93
2016-11-13T02:21:17.696Z,1014.93
2016-11-13T02:22:17.708Z,1014.94
2016-11-13T02:23:17.722Z,1014.92
2016-11-13T02:24:17.732Z,1014.94
2016-11-13T02:25:17.744Z,1014.92
2016-11-13T02:26:17.759Z,1014.95
2016-11-13T02:27:17.770Z,1014.98
2016-11-13T02:28:17.781Z,1014.96
2016-11-13T02:29:17.793Z,1014.97
2016-11-13T02:30:17.806Z,1014.96
2016-11-13T02:31:17.818Z,1014.97
2016-11-13T02:32:17.828Z,1014.99
2016-11-13T02:33:17.843Z,1015.04
2016-11-13T02:34:17.854Z,1015.02
2016-11-13T02:35:17.872Z,1014.97
2016-11-13T02:36:17.878Z,1015.03
2016-11-13T02:37:17.892Z,1015.03
2016-11-13T02:38:17.905Z,1015.05
2016-11-13T02:39:17.913Z,1015.07
2016-11-13T02:40:17.925Z,1015.05
2016-11-13T02:41:17.939Z,1015.03
2016-11-13T02:42:17.952Z,1015.06
2016-11-13T02:43:17.963Z,1015.09
2016-11-13T02:44:17.973Z,1015.04
2016-11-13T02:45:17.986Z,1015.07
2016-11-13T02:46:17.998Z,1015.06
2016-11-13T02:47:18.009Z,1015.07
2016-11-13T02:48:18.022Z,1015.09
2016-11-13T02:49:18.034Z,1015.1
2016-11-13T02:50:18.052Z,1015.06
2016-11-13T02:51:18.058Z,1015.08
2016-11-13T02:52:18.070Z,1015.1
2016-11-13T02:53:18.082Z,1015.1
2016-11-13T02:54:18.093Z,1015.1
2016-11-13T02:55:18.106Z,1015.03
2016-11-13T02:56:18.118Z,1015.11
2016-11-13T02:57:18.130Z,1015.12
2016-11-13T02:58:18.141Z,1015.06
2016-11-13T02:59:18.155Z,1015.06
2016-11-13T03:00:18.166Z,1015.04
2016-11-13T03:01:18.179Z,1015.06
2016-11-13T03:02:18.190Z,1015.04
2016-11-13T03:03:18.203Z,1015.05
2016-11-13T03:04:18.214Z,1015.04
2016-11-13T03:05:18.227Z,1015.01
2016-11-13T03:06:18.240Z,1015.06
2016-11-13T03:07:18.251Z,1015.07
2016-11-13T03:08:18.261Z,1015.08
2016-11-13T03:09:18.274Z,1015.09
2016-11-13T03:10:18.287Z,1015.07
2016-11-13T03:11:18.300Z,1015.12
2016-11-13T03:12:18.311Z,1015.1
2016-11-13T03:13:18.323Z,1015.1
2016-11-13T03:14:18.338Z,1015.09
2016-11-13T03:15:18.346Z,1015.12
2016-11-13T03:16:18.357Z,1015.16
2016-11-13T03:17:18.370Z,1015.13
2016-11-13T03:18:18.386Z,1015.17
2016-11-13T03:19:18.393Z,1015.17
2016-11-13T03:20:18.406Z,1015.18
2016-11-13T03:21:18.421Z,1015.19
2016-11-13T03:22:18.430Z,1015.2
2016-11-13T03:23:18.442Z,1015.22
2016-11-13T03:24:18.454Z,1015.25
2016-11-13T03:25:18.469Z,1015.24
2016-11-13T03:26:18.476Z,1015.24
2016-11-13T03:27:18.490Z,1015.29
2016-11-13T03:28:18.502Z,1015.27
2016-11-13T03:29:18.513Z,1015.29
2016-11-13T03:30:18.527Z,1015.26
2016-11-13T03:31:18.535Z,1015.28
2016-11-13T03:32:18.550Z,1015.26
2016-11-13T03:33:18.560Z,1015.28
2016-11-13T03:34:18.572Z,1015.27
2016-11-13T03:35:18.584Z,1015.31
2016-11-13T03:36:18.598Z,1015.27
2016-11-13T03:37:18.608Z,1015.31
2016-11-13T03:38:18.618Z,1015.33
2016-11-13T03:39:18.631Z,1015.28
2016-11-13T03:40:18.644Z,1015.29
2016-11-13T03:41:18.655Z,1015.28
2016-11-13T03:42:18.668Z,1015.29
2016-11-13T03:43:18.679Z,1015.32
2016-11-13T03:44:18.691Z,1015.25
2016-11-13T03:45:18.703Z,1015.25
2016-11-13T03:46:18.715Z,1015.23
2016-11-13T03:47:18.729Z,1015.25
2016-11-13T03:48:18.736Z,1015.22
2016-11-13T03:49:18.750Z,1015.27
2016-11-13T03:50:18.762Z,1015.26
2016-11-13T03:51:18.774Z,1015.34
2016-11-13T03:52:18.784Z,1015.28
2016-11-13T03:53:18.797Z,1015.32
2016-11-13T03:54:18.814Z,1015.35
2016-11-13T03:55:18.821Z,1015.34
2016-11-13T03:56:18.833Z,1015.34
2016-11-13T03:57:18.845Z,1015.31
2016-11-13T03:58:18.856Z,1015.3
2016-11-13T03:59:18.871Z,1015.29
2016-11-13T04:00:18.879Z,1015.34
2016-11-13T04:01:18.892Z,1015.32
2016-11-13T04:02:18.904Z,1015.37
2016-11-13T04:03:18.915Z,1015.33
2016-11-13T04:04:18.927Z,1015.33
2016-11-13T04:05:18.941Z,1015.35
2016-11-13T04:06:18.953Z,1015.33
2016-11-13T04:07:18.962Z,1015.34
2016-11-13T04:08:18.973Z,1015.33
2016-11-13T04:09:18.986Z,1015.29
2016-11-13T04:10:18.997Z,1015.32
2016-11-13T04:11:19.008Z,1015.27
2016-11-13T04:12:19.021Z,1015.31
2016-11-13T04:13:19.037Z,1015.32
2016-11-13T04:14:19.045Z,1015.3
2016-11-13T04:15:19.056Z,1015.29
2016-11-13T04:16:19.067Z,1015.35
2016-11-13T04:17:19.080Z,1015.38
2016-11-13T04:18:19.090Z,1015.35
2016-11-13T04:19:19.103Z,1015.37
2016-11-13T04:20:19.118Z,1015.39
2016-11-13T04:21:19.125Z,1015.37
2016-11-13T04:22:19.139Z,1015.38
2016-11-13T04:23:19.153Z,1015.39
2016-11-13T04:24:19.165Z,1015.36
2016-11-13T04:25:19.176Z,1015.38
2016-11-13T04:26:19.187Z,1015.38
2016-11-13T04:27:19.198Z,1015.38
2016-11-13T04:28:19.211Z,1015.38
2016-11-13T04:29:19.224Z,1015.35
2016-11-13T04:30:19.234Z,1015.38
2016-11-13T04:31:19.244Z,1015.35
2016-11-13T04:32:19.256Z,1015.36
2016-11-13T04:33:19.268Z,1015.34
2016-11-13T04:34:19.277Z,1015.31
2016-11-13T04:35:19.289Z,1015.3
2016-11-13T04:36:19.301Z,1015.28
2016-11-13T04:37:19.313Z,1015.29
2016-11-13T04:38:19.325Z,1015.28
2016-11-13T04:39:19.336Z,1015.28
2016-11-13T04:40:19.349Z,1015.31
2016-11-13T04:41:19.360Z,1015.36
2016-11-13T04:42:19.375Z,1015.38
2016-11-13T04:43:19.386Z,1015.36
2016-11-13T04:44:19.400Z,1015.42
2016-11-13T04:45:19.411Z,1015.4
2016-11-13T04:46:19.423Z,1015.43
2016-11-13T04:47:19.432Z,1015.44
2016-11-13T04:48:19.441Z,1015.41
2016-11-13T04:49:19.455Z,1015.44
2016-11-13T04:50:19.465Z,1015.42
2016-11-13T04:51:19.483Z,1015.48
2016-11-13T04:52:19.493Z,1015.45
2016-11-13T04:53:19.502Z,1015.46
2016-11-13T04:54:19.511Z,1015.45
2016-11-13T04:55:19.523Z,1015.46
2016-11-13T04:56:19.535Z,1015.46
2016-11-13T04:57:19.547Z,1015.46
2016-11-13T04:58:19.557Z,1015.48
2016-11-13T04:59:19.568Z,1015.39
2016-11-13T05:00:19.581Z,1015.4
2016-11-13T05:01:19.596Z,1015.4
2016-11-13T05:02:19.603Z,1015.42
2016-11-13T05:03:19.614Z,1015.42
2016-11-13T05:04:19.626Z,1015.45
2016-11-13T05:05:19.637Z,1015.46
2016-11-13T05:06:19.651Z,1015.44
2016-11-13T05:07:19.666Z,1015.44
2016-11-13T05:08:19.673Z,1015.46
2016-11-13T05:09:19.688Z,1015.49
2016-11-13T05:10:19.697Z,1015.49
2016-11-13T05:11:19.708Z,1015.5
2016-11-13T05:12:19.718Z,1015.49
2016-11-13T05:13:19.729Z,1015.51
2016-11-13T05:14:19.744Z,1015.49
2016-11-13T05:15:19.753Z,1015.51
2016-11-13T05:16:19.764Z,1015.53
2016-11-13T05:17:19.776Z,1015.51
2016-11-13T05:18:19.790Z,1015.55
2016-11-13T05:19:19.800Z,1015.49
2016-11-13T05:20:19.813Z,1015.47
2016-11-13T05:21:19.822Z,1015.52
2016-11-13T05:22:19.833Z,1015.49
2016-11-13T05:23:19.844Z,1015.51
2016-11-13T05:24:19.855Z,1015.53
2016-11-13T05:25:19.868Z,1015.55
2016-11-13T05:26:19.878Z,1015.56
2016-11-13T05:27:19.891Z,1015.54
2016-11-13T05:28:19.907Z,1015.55
2016-11-13T05:29:19.923Z,1015.54
2016-11-13T05:30:19.927Z,1015.56
2016-11-13T05:31:19.936Z,1015.55
2016-11-13T05:32:19.947Z,1015.56
2016-11-13T05:33:19.962Z,1015.6
2016-11-13T05:34:19.971Z,1015.57
2016-11-13T05:35:19.982Z,1015.56
2016-11-13T05:36:19.993Z,1015.51
2016-11-13T05:37:20.006Z,1015.53
2016-11-13T05:38:20.020Z,1015.55
2016-11-13T05:39:20.031Z,1015.53
2016-11-13T05:40:20.041Z,1015.54
2016-11-13T05:41:20.052Z,1015.57
2016-11-13T05:42:20.063Z,1015.54
2016-11-13T05:43:20.074Z,1015.58
2016-11-13T05:44:20.085Z,1015.54
2016-11-13T05:45:20.095Z,1015.59
2016-11-13T05:46:20.107Z,1015.55
2016-11-13T05:47:20.118Z,1015.6
2016-11-13T05:48:20.130Z,1015.57
2016-11-13T05:49:20.141Z,1015.61
2016-11-13T05:50:20.151Z,1015.62
2016-11-13T05:51:20.164Z,1015.61
2016-11-13T05:52:20.175Z,1015.61
2016-11-13T05:53:20.188Z,1015.65
2016-11-13T05:54:20.196Z,1015.65
2016-11-13T05:55:20.209Z,1015.63
2016-11-13T05:56:20.219Z,1015.64
2016-11-13T05:57:20.233Z,1015.67
2016-11-13T05:58:20.247Z,1015.67
2016-11-13T05:59:20.258Z,1015.67
2016-11-13T06:00:20.265Z,1015.65
2016-11-13T06:01:20.275Z,1015.7
2016-11-13T06:02:20.293Z,1015.72
2016-11-13T06:03:20.300Z,1015.73
2016-11-13T06:04:20.313Z,1015.73
2016-11-13T06:05:20.321Z,1015.78
2016-11-13T06:06:20.333Z,1015.76
2016-11-13T06:07:20.344Z,1015.81
2016-11-13T06:08:20.354Z,1015.78
2016-11-13T06:09:20.370Z,1015.84
2016-11-13T06:10:20.379Z,1015.88
2016-11-13T06:11:20.391Z,1015.89
2016-11-13T06:12:20.402Z,1015.92
2016-11-13T06:13:20.412Z,1015.93
2016-11-13T06:14:20.427Z,1015.94
2016-11-13T06:15:20.436Z,1015.95
2016-11-13T06:16:20.447Z,1015.98
2016-11-13T06:17:20.464Z,1016.01
2016-11-13T06:18:20.468Z,1015.99
2016-11-13T06:19:20.484Z,1015.99
2016-11-13T06:20:20.491Z,1016.03
2016-11-13T06:21:20.502Z,1016.01
2016-11-13T06:22:20.512Z,1016.01
2016-11-13T06:23:20.525Z,1016
2016-11-13T06:24:20.536Z,1016.01
2016-11-13T06:25:20.552Z,1016.04
2016-11-13T06:26:20.558Z,1016
2016-11-13T06:27:20.569Z,1016.02
2016-11-13T06:28:20.580Z,1016.05
2016-11-13T06:29:20.591Z,1016.04
2016-11-13T06:30:20.603Z,1016.09
2016-11-13T06:31:20.613Z,1016.06
2016-11-13T06:32:20.625Z,1016.06
2016-11-13T06:33:20.640Z,1016.1
2016-11-13T06:34:20.648Z,1016.09
2016-11-13T06:35:20.658Z,1016.12
2016-11-13T06:36:20.668Z,1016.15
2016-11-13T06:37:20.681Z,1016.18
2016-11-13T06:38:20.693Z,1016.21
2016-11-13T06:39:20.704Z,1016.19
2016-11-13T06:40:20.714Z,1016.18
2016-11-13T06:41:20.725Z,1016.22
2016-11-13T06:42:20.741Z,1016.2
2016-11-13T06:43:20.747Z,1016.2
2016-11-13T06:44:20.758Z,1016.17
2016-11-13T06:45:20.774Z,1016.22
2016-11-13T06:46:20.782Z,1016.21
2016-11-13T06:47:20.795Z,1016.21
2016-11-13T06:48:20.803Z,1016.25
2016-11-13T06:49:20.815Z,1016.24
2016-11-13T06:50:20.827Z,1016.28
2016-11-13T06:51:20.842Z,1016.31
2016-11-13T06:52:20.850Z,1016.3
2016-11-13T06:53:20.861Z,1016.3
2016-11-13T06:54:20.874Z,1016.33
2016-11-13T06:55:20.883Z,1016.36
2016-11-13T06:56:20.892Z,1016.35
2016-11-13T06:57:20.904Z,1016.35
2016-11-13T06:58:20.914Z,1016.37
2016-11-13T06:59:20.924Z,1016.36
2016-11-13T07:00:20.936Z,1016.38
2016-11-13T07:01:20.951Z,1016.38
2016-11-13T07:02:20.966Z,1016.41
2016-11-13T07:03:20.969Z,1016.39
2016-11-13T07:04:20.981Z,1016.44
2016-11-13T07:05:20.992Z,1016.45
2016-11-13T07:06:21.002Z,1016.46
2016-11-13T07:07:21.017Z,1016.44
2016-11-13T07:08:21.031Z,1016.44
2016-11-13T07:09:21.037Z,1016.47
2016-11-13T07:10:21.047Z,1016.5
2016-11-13T07:11:21.057Z,1016.49
2016-11-13T07:12:21.069Z,1016.51
2016-11-13T07:13:21.079Z,1016.52
2016-11-13T07:14:21.092Z,1016.53
2016-11-13T07:15:21.101Z,1016.55
2016-11-13T07:16:21.112Z,1016.56
2016-11-13T07:17:21.123Z,1016.58
2016-11-13T07:18:21.138Z,1016.6
2016-11-13T07:19:21.148Z,1016.58
2016-11-13T07:20:21.161Z,1016.6
2016-11-13T07:21:21.168Z,1016.59
2016-11-13T07:22:21.178Z,1016.57
2016-11-13T07:23:21.191Z,1016.6
2016-11-13T07:24:21.202Z,1016.58
2016-11-13T07:25:21.212Z,1016.6
2016-11-13T07:26:21.224Z,1016.57
2016-11-13T07:27:21.236Z,1016.6
2016-11-13T07:28:21.244Z,1016.62
2016-11-13T07:29:21.258Z,1016.61
2016-11-13T07:30:21.268Z,1016.63
2016-11-13T07:31:21.278Z,1016.65
2016-11-13T07:32:21.293Z,1016.67
2016-11-13T07:33:21.301Z,1016.66
2016-11-13T07:34:21.322Z,1016.68
2016-11-13T07:35:21.322Z,1016.67
2016-11-13T07:36:21.333Z,1016.71
2016-11-13T07:37:21.345Z,1016.71
2016-11-13T07:38:21.356Z,1016.75
2016-11-13T07:39:21.365Z,1016.7
2016-11-13T07:40:21.378Z,1016.72
2016-11-13T07:41:21.388Z,1016.69
2016-11-13T07:42:21.402Z,1016.7
2016-11-13T07:43:21.414Z,1016.7
2016-11-13T07:44:21.423Z,1016.7
2016-11-13T07:45:21.434Z,1016.69
2016-11-13T07:46:21.443Z,1016.71
2016-11-13T07:47:21.455Z,1016.71
2016-11-13T07:48:21.467Z,1016.71
2016-11-13T07:49:21.478Z,1016.72
2016-11-13T07:50:21.489Z,1016.69
2016-11-13T07:51:21.500Z,1016.72
2016-11-13T07:52:21.512Z,1016.74
2016-11-13T07:53:21.522Z,1016.72
2016-11-13T07:54:21.532Z,1016.76
2016-11-13T07:55:21.544Z,1016.76
2016-11-13T07:56:21.556Z,1016.74
2016-11-13T07:57:21.566Z,1016.76
2016-11-13T07:58:21.578Z,1016.79
2016-11-13T07:59:21.592Z,1016.83
2016-11-13T08:00:21.600Z,1016.84
2016-11-13T08:01:21.626Z,1016.86
2016-11-13T08:02:21.625Z,1016.88
2016-11-13T08:03:21.633Z,1016.84
2016-11-13T08:04:21.644Z,1016.85
2016-11-13T08:05:21.655Z,1016.84
2016-11-13T08:06:21.668Z,1016.91
2016-11-13T08:07:21.677Z,1016.86
2016-11-13T08:08:21.687Z,1016.9
2016-11-13T08:09:21.699Z,1016.89
2016-11-13T08:10:21.711Z,1016.93
2016-11-13T08:11:21.726Z,1016.94
2016-11-13T08:12:21.734Z,1016.98
2016-11-13T08:13:21.745Z,1017.03
2016-11-13T08:14:21.756Z,1016.99
2016-11-13T08:15:21.765Z,1016.99
2016-11-13T08:16:21.777Z,1017.03
2016-11-13T08:17:21.791Z,1017.04
2016-11-13T08:18:21.801Z,1017.04
2016-11-13T08:19:21.811Z,1017.03
2016-11-13T08:20:21.823Z,1017
2016-11-13T08:21:21.834Z,1017.01
2016-11-13T08:22:21.843Z,1016.99
2016-11-13T08:23:21.856Z,1017.03
2016-11-13T08:24:21.866Z,1017.01
2016-11-13T08:25:21.879Z,1017.03
2016-11-13T08:26:21.888Z,1017.01
2016-11-13T08:27:21.901Z,1017.05
2016-11-13T08:28:21.913Z,1017.05
2016-11-13T08:29:21.923Z,1017.03
2016-11-13T08:30:21.938Z,1017.04
2016-11-13T08:31:21.945Z,1017.04
2016-11-13T08:32:21.956Z,1017.07
2016-11-13T08:33:21.966Z,1017.08
2016-11-13T08:34:21.979Z,1017.06
2016-11-13T08:35:21.990Z,1017.07
2016-11-13T08:36:22.031Z,1017.1
2016-11-13T08:37:22.012Z,1017.09
2016-11-13T08:38:22.023Z,1017.13
2016-11-13T08:39:22.040Z,1017.14
2016-11-13T08:40:22.046Z,1017.18
2016-11-13T08:41:22.058Z,1017.17
2016-11-13T08:42:22.068Z,1017.21
2016-11-13T08:43:22.080Z,1017.22
2016-11-13T08:44:22.091Z,1017.2
2016-11-13T08:45:22.102Z,1017.18
2016-11-13T08:46:22.113Z,1017.25
2016-11-13T08:47:22.124Z,1017.21
2016-11-13T08:48:22.135Z,1017.26
2016-11-13T08:49:22.147Z,1017.28
2016-11-13T08:50:22.158Z,1017.29
2016-11-13T08:51:22.169Z,1017.3
2016-11-13T08:52:22.188Z,1017.29
2016-11-13T08:53:22.193Z,1017.34
2016-11-13T08:54:22.203Z,1017.32
2016-11-13T08:55:22.214Z,1017.35
2016-11-13T08:56:22.225Z,1017.36
2016-11-13T08:57:22.237Z,1017.37
2016-11-13T08:58:22.248Z,1017.39
2016-11-13T08:59:22.260Z,1017.36
2016-11-13T09:00:22.271Z,1017.37
2016-11-13T09:01:22.283Z,1017.37
2016-11-13T09:02:22.294Z,1017.36
2016-11-13T09:03:22.305Z,1017.36
2016-11-13T09:04:22.317Z,1017.33
2016-11-13T09:05:22.327Z,1017.35
2016-11-13T09:06:22.339Z,1017.37
2016-11-13T09:07:22.349Z,1017.39
2016-11-13T09:08:22.371Z,1017.38
2016-11-13T09:09:22.374Z,1017.34
2016-11-13T09:10:22.391Z,1017.37
2016-11-13T09:11:22.395Z,1017.38
2016-11-13T09:12:22.407Z,1017.38
2016-11-13T09:13:22.418Z,1017.41
2016-11-13T09:14:22.430Z,1017.39
2016-11-13T09:15:22.441Z,1017.41
2016-11-13T09:16:22.452Z,1017.44
2016-11-13T09:17:22.464Z,1017.48
2016-11-13T09:18:22.478Z,1017.46
2016-11-13T09:19:22.486Z,1017.45
2016-11-13T09:20:22.498Z,1017.46
2016-11-13T09:21:22.510Z,1017.45
2016-11-13T09:22:22.522Z,1017.45
2016-11-13T09:23:22.534Z,1017.45
2016-11-13T09:24:22.544Z,1017.47
2016-11-13T09:25:22.557Z,1017.48
2016-11-13T09:26:22.569Z,1017.45
2016-11-13T09:27:22.579Z,1017.47
2016-11-13T09:28:22.590Z,1017.49
2016-11-13T09:29:22.602Z,1017.43
2016-11-13T09:30:22.616Z,1017.46
2016-11-13T09:31:22.628Z,1017.51
2016-11-13T09:32:22.638Z,1017.51
2016-11-13T09:33:22.650Z,1017.52
2016-11-13T09:34:22.668Z,1017.55
2016-11-13T09:35:22.672Z,1017.57
2016-11-13T09:36:22.683Z,1017.58
2016-11-13T09:37:22.695Z,1017.56
2016-11-13T09:38:22.706Z,1017.58
2016-11-13T09:39:22.718Z,1017.64
2016-11-13T09:40:22.730Z,1017.6
2016-11-13T09:41:22.741Z,1017.57
2016-11-13T09:42:22.753Z,1017.54
2016-11-13T09:43:22.763Z,1017.58
2016-11-13T09:44:22.776Z,1017.58
2016-11-13T09:45:22.787Z,1017.6
2016-11-13T09:46:22.798Z,1017.61
2016-11-13T09:47:22.811Z,1017.61
2016-11-13T09:48:22.823Z,1017.6
2016-11-13T09:49:22.841Z,1017.62
2016-11-13T09:50:22.855Z,1017.64
2016-11-13T09:51:22.866Z,1017.63
2016-11-13T09:52:22.869Z,1017.68
2016-11-13T09:53:22.881Z,1017.67
2016-11-13T09:54:22.892Z,1017.66
2016-11-13T09:55:22.903Z,1017.69
2016-11-13T09:56:22.916Z,1017.66
2016-11-13T09:57:22.927Z,1017.67
2016-11-13T09:58:22.939Z,1017.64
2016-11-13T09:59:22.952Z,1017.65
2016-11-13T10:00:22.963Z,1017.67
2016-11-13T10:01:22.975Z,1017.62
2016-11-13T10:02:22.986Z,1017.69
2016-11-13T10:03:22.999Z,1017.68
2016-11-13T10:04:23.011Z,1017.65
2016-11-13T10:05:23.023Z,1017.7
2016-11-13T10:06:23.035Z,1017.69
2016-11-13T10:07:23.050Z,1017.64
2016-11-13T10:08:23.057Z,1017.64
2016-11-13T10:09:23.070Z,1017.63
2016-11-13T10:10:23.082Z,1017.63
2016-11-13T10:11:23.094Z,1017.62
2016-11-13T10:12:23.105Z,1017.64
2016-11-13T10:13:23.122Z,1017.61
2016-11-13T10:14:23.130Z,1017.64
2016-11-13T10:15:23.142Z,1017.64
2016-11-13T10:16:23.154Z,1017.71
2016-11-13T10:17:23.167Z,1017.67
2016-11-13T10:18:23.179Z,1017.65
2016-11-13T10:19:23.189Z,1017.69
2016-11-13T10:20:23.203Z,1017.66
2016-11-13T10:21:23.215Z,1017.7
2016-11-13T10:22:23.229Z,1017.67
2016-11-13T10:23:23.238Z,1017.72
2016-11-13T10:24:23.252Z,1017.69
2016-11-13T10:25:23.263Z,1017.7
2016-11-13T10:26:23.322Z,1017.72
2016-11-13T10:27:23.287Z,1017.75
2016-11-13T10:28:23.302Z,1017.72
2016-11-13T10:29:23.315Z,1017.74
2016-11-13T10:30:23.325Z,1017.73
2016-11-13T10:31:23.339Z,1017.7
2016-11-13T10:32:23.350Z,1017.7
2016-11-13T10:33:23.362Z,1017.71
2016-11-13T10:34:23.376Z,1017.67
2016-11-13T10:35:23.388Z,1017.67
2016-11-13T10:36:23.400Z,1017.63
2016-11-13T10:37:23.415Z,1017.64
2016-11-13T10:38:23.425Z,1017.61
2016-11-13T10:39:23.438Z,1017.59
2016-11-13T10:40:23.451Z,1017.56
2016-11-13T10:41:23.465Z,1017.61
2016-11-13T10:42:23.475Z,1017.61
2016-11-13T10:43:23.488Z,1017.58
2016-11-13T10:44:23.502Z,1017.62
2016-11-13T10:45:23.513Z,1017.62
2016-11-13T10:46:23.525Z,1017.54
2016-11-13T10:47:23.538Z,1017.56
2016-11-13T10:48:23.553Z,1017.54
2016-11-13T10:49:23.565Z,1017.6
2016-11-13T10:50:23.579Z,1017.57
2016-11-13T10:51:23.596Z,1017.53
2016-11-13T10:52:23.637Z,1017.55
2016-11-13T10:53:23.615Z,1017.57
2016-11-13T10:54:23.629Z,1017.58
2016-11-13T10:55:23.642Z,1017.58
2016-11-13T10:56:23.653Z,1017.58
2016-11-13T10:57:23.670Z,1017.57
2016-11-13T10:58:23.680Z,1017.54
2016-11-13T10:59:23.694Z,1017.53
2016-11-13T11:00:23.712Z,1017.56
2016-11-13T11:01:23.723Z,1017.52
2016-11-13T11:02:23.736Z,1017.54
2016-11-13T11:03:23.746Z,1017.55
2016-11-13T11:04:23.759Z,1017.54
2016-11-13T11:05:23.775Z,1017.53
2016-11-13T11:06:23.785Z,1017.53
2016-11-13T11:07:23.798Z,1017.53
2016-11-13T11:08:23.813Z,1017.55
2016-11-13T11:09:23.828Z,1017.55
2016-11-13T11:10:23.840Z,1017.55
2016-11-13T11:11:23.852Z,1017.55
2016-11-13T11:12:23.865Z,1017.55
2016-11-13T11:13:23.878Z,1017.54
2016-11-13T11:14:23.891Z,1017.57
2016-11-13T11:15:24.006Z,1017.53
2016-11-13T11:16:23.918Z,1017.54
2016-11-13T11:17:24.051Z,1017.52
2016-11-13T11:18:24.061Z,1017.51
2016-11-13T11:19:24.069Z,1017.53
2016-11-13T11:20:24.075Z,1017.56
2016-11-13T11:21:24.097Z,1017.46
2016-11-13T11:22:24.115Z,1017.53
2016-11-13T11:23:24.120Z,1017.44
2016-11-13T11:24:24.132Z,1017.48
2016-11-13T11:25:24.134Z,1017.38
2016-11-13T11:26:24.133Z,1017.43
2016-11-13T11:27:24.144Z,1017.36
2016-11-13T11:28:24.167Z,1017.41
2016-11-13T11:29:24.176Z,1017.42
2016-11-13T11:30:24.175Z,1017.39
2016-11-13T11:31:24.167Z,1017.4
2016-11-13T11:32:24.131Z,1017.37
2016-11-13T11:33:24.144Z,1017.38
2016-11-13T11:34:24.205Z,1017.42
2016-11-13T11:35:24.173Z,1017.4
2016-11-13T11:36:24.185Z,1017.41
2016-11-13T11:37:24.202Z,1017.33
2016-11-13T11:38:24.213Z,1017.33
2016-11-13T11:39:24.227Z,1017.32
2016-11-13T11:40:24.240Z,1017.34
2016-11-13T11:41:24.256Z,1017.35
2016-11-13T11:42:24.268Z,1017.32
2016-11-13T11:43:24.281Z,1017.32
2016-11-13T11:44:24.293Z,1017.34
2016-11-13T11:45:24.309Z,1017.31
2016-11-13T11:46:24.321Z,1017.3
2016-11-13T11:47:24.334Z,1017.27
2016-11-13T11:48:24.351Z,1017.28
2016-11-13T11:49:24.363Z,1017.28
2016-11-13T11:50:24.377Z,1017.28
2016-11-13T11:51:24.390Z,1017.23
2016-11-13T11:52:24.406Z,1017.28
2016-11-13T11:53:24.417Z,1017.3
2016-11-13T11:54:24.431Z,1017.26
2016-11-13T11:55:24.450Z,1017.24
2016-11-13T11:56:24.458Z,1017.24
2016-11-13T11:57:24.472Z,1017.27
2016-11-13T11:58:24.486Z,1017.27
2016-11-13T11:59:24.499Z,1017.26
2016-11-13T12:00:24.513Z,1017.27
2016-11-13T12:01:24.530Z,1017.24
2016-11-13T12:02:24.540Z,1017.28
2016-11-13T12:03:24.553Z,1017.26
2016-11-13T12:04:24.572Z,1017.27
2016-11-13T12:05:24.582Z,1017.24
2016-11-13T12:06:24.599Z,1017.22
2016-11-13T12:07:24.614Z,1017.25
2016-11-13T12:08:24.624Z,1017.28